Miller Field
KVTN : rendu visible

Aérodrome :











RETROUVEZ-NOUS SUR...

 
LOGIN :

S'inscrire | Disclaimer

   EN    FR    IT 

 









Légende :    VFR   VFR Marginal   IFR   IFR Intensif   IFR Très Intensif
Visi : 
Plafond : 
>= 8 km
>= 3000ft
5 à 8 km
1000 à 3000 ft
1500m à 5 km
500 à 1000 ft
800 à 1500m
200 à 500 ft
< 800m
< 200 ft
Symboles :   Orages  Brouillard  Fortes neiges  Fortes précipitations  Vent > 20 kt






- Altitude de l'aérodrome : 2596 ft


KVTN - Miller Field

DERNIER METAR :
  • 031252Z AUTO 02004KT 10SM CLR 21/14 A2998 RMK AO2 SLP131 T02110139

METARs EXPIRÉS :
  • 031152Z AUTO 20010KT 10SM CLR 18/14 A2997 RMK AO2 SLP128 T01780139 10183 20150 58016
  • 031052Z AUTO 19006KT 10SM FEW055 FEW070 BKN110 17/14 A3002 RMK AO2 SLP147 T01720139

TAF KVTN
Valide du 03 à 12h jusqu'au 04 à 12h UTC


031120Z 0312/0412 23006KT P6SM SCT180
FM031700 18008KT P6SM SCT180
FM032200 21010KT 5SM -TSRA BKN050CB
FM040200 14007KT P6SM SCT250
FIR KZDV / Amérique du Nord



MET'MAP, la Météo Aéronautique d'un coup d'oeil ! - Copyright ORBIFLY Décembre 2007 - Disclaimer

ORBIFLY MET'MAP TEAM :

Programmation & Développement : Alexandra Zaïnal
Sur une idée originale de : Baudouin d'Aumeries
Assistance à la programmation : Marc-Olivier Méhu
Soutien technique & logistique : Manuel Goepfert

Contact : metmap@orbifly.com




SOURCES & CREDITS :

   NOAA       Earth
Advisory